Time;durP1;ratioP1;P1;durP2;ratioP2;P2;SDS_P1;SDS_P2;PMS_P1;PMS_P2;Temp;Humidity;BMP_temperature;BMP_pressure;BME280_temperature;BME280_humidity;BME280_pressure;Samples;Min_cycle;Max_cycle;Signal;HPM_P1;HPM_P2
2022/03/16 00:02:22;;;;;;;11.83;4.17;;;9.60;99.90;;;;;;4980311;28;20176;-84
2022/03/16 00:04:52;;;;;;;11.77;3.80;;;9.60;99.90;;;;;;4978933;28;20200;-83
2022/03/16 00:07:19;;;;;;;9.77;3.30;;;9.60;99.90;;;;;;4979936;28;20620;-83
2022/03/16 00:09:45;;;;;;;14.37;3.50;;;9.50;99.90;;;;;;4980010;28;20267;-83
2022/03/16 00:12:13;;;;;;;19.73;3.50;;;9.50;99.90;;;;;;4978599;28;20261;-83
2022/03/16 00:14:40;;;;;;;9.33;3.93;;;9.60;99.90;;;;;;4978100;28;20264;-83
2022/03/16 00:17:06;;;;;;;9.83;3.10;;;9.50;99.90;;;;;;4977866;28;20227;-83
2022/03/16 00:19:32;;;;;;;13.07;3.87;;;9.50;99.90;;;;;;4977391;28;20180;-83
2022/03/16 00:21:59;;;;;;;9.00;3.03;;;9.60;99.90;;;;;;4976298;28;20176;-83
2022/03/16 00:24:24;;;;;;;8.53;2.80;;;9.60;99.90;;;;;;4977601;28;20638;-83
2022/03/16 00:26:50;;;;;;;7.07;3.33;;;9.60;99.90;;;;;;4980370;28;20259;-84
2022/03/16 00:29:16;;;;;;;12.33;3.30;;;9.60;99.90;;;;;;4979110;28;20188;-83
2022/03/16 00:31:41;;;;;;;5.10;2.97;;;9.60;99.90;;;;;;4979136;28;20191;-83
2022/03/16 00:34:07;;;;;;;9.17;3.97;;;9.60;99.90;;;;;;4980483;28;20199;-83
2022/03/16 00:36:33;;;;;;;6.70;2.93;;;9.50;99.90;;;;;;4980643;28;20204;-83
2022/03/16 00:38:58;;;;;;;9.30;3.17;;;9.50;99.90;;;;;;4979631;28;20183;-84
2022/03/16 00:41:24;;;;;;;9.10;3.83;;;9.50;99.90;;;;;;4979834;28;20241;-83
2022/03/16 00:43:50;;;;;;;9.30;3.80;;;9.40;99.90;;;;;;4985879;28;20188;-83
2022/03/16 00:46:16;;;;;;;15.77;6.40;;;9.40;99.90;;;;;;4980298;28;20590;-84
2022/03/16 00:48:41;;;;;;;19.00;7.23;;;9.40;99.90;;;;;;4980197;28;20686;-83
2022/03/16 00:51:09;;;;;;;14.43;6.77;;;9.40;99.90;;;;;;4978807;28;20176;-83
2022/03/16 00:53:35;;;;;;;7.83;5.20;;;9.30;99.90;;;;;;4980624;28;20267;-84
2022/03/16 00:56:02;;;;;;;11.83;4.60;;;9.30;99.90;;;;;;4977079;28;20220;-83
2022/03/16 00:58:28;;;;;;;8.77;4.07;;;9.30;99.90;;;;;;4978412;28;20571;-83
2022/03/16 01:00:54;;;;;;;8.73;3.80;;;9.30;99.90;;;;;;4976957;28;20648;-83
2022/03/16 01:03:20;;;;;;;9.90;3.60;;;9.30;99.90;;;;;;4979249;28;20292;-83
2022/03/16 01:05:46;;;;;;;9.33;3.30;;;9.20;99.90;;;;;;4980480;28;20204;-83
2022/03/16 01:08:12;;;;;;;6.80;3.13;;;9.20;99.90;;;;;;4982070;28;20207;-83
2022/03/16 01:10:39;;;;;;;6.40;3.57;;;9.20;99.90;;;;;;4981659;28;20168;-83
2022/03/16 01:13:05;;;;;;;8.80;3.77;;;9.20;99.90;;;;;;4981526;28;20175;-83
2022/03/16 01:15:30;;;;;;;5.53;3.80;;;9.20;99.90;;;;;;4979968;28;20230;-83
2022/03/16 01:17:56;;;;;;;10.70;3.70;;;9.20;99.90;;;;;;4980372;28;20188;-83
2022/03/16 01:20:22;;;;;;;6.60;3.63;;;9.10;99.90;;;;;;4980432;28;20194;-83
2022/03/16 01:22:47;;;;;;;6.90;3.57;;;9.10;99.90;;;;;;4980050;28;20270;-84
2022/03/16 01:25:13;;;;;;;6.37;3.80;;;9.10;99.90;;;;;;4980402;28;20204;-83
2022/03/16 01:27:39;;;;;;;7.73;3.83;;;9.00;99.90;;;;;;4981663;28;20206;-83
2022/03/16 01:30:05;;;;;;;9.27;4.03;;;9.00;99.90;;;;;;4981413;28;20244;-83
2022/03/16 01:32:31;;;;;;;9.03;3.83;;;8.90;99.90;;;;;;4981474;28;20178;-84
2022/03/16 01:34:57;;;;;;;8.00;4.67;;;8.90;99.90;;;;;;4981298;28;20200;-83
2022/03/16 01:37:23;;;;;;;12.53;5.00;;;8.90;99.90;;;;;;4981055;28;20214;-83
2022/03/16 01:39:48;;;;;;;10.07;4.67;;;8.90;99.90;;;;;;4981521;28;20185;-83
2022/03/16 01:42:14;;;;;;;14.10;5.37;;;8.80;99.90;;;;;;4979697;28;20180;-83
2022/03/16 01:44:54;;;;;;;12.93;4.83;;;8.80;99.90;;;;;;4981146;28;20318;-83
2022/03/16 01:47:22;;;;;;;10.43;5.13;;;8.80;99.90;;;;;;4979360;28;20210;-83
2022/03/16 01:49:49;;;;;;;8.83;4.37;;;8.80;99.90;;;;;;4979797;28;20668;-83
2022/03/16 01:52:17;;;;;;;9.90;4.63;;;8.70;99.90;;;;;;4979885;28;20247;-83
2022/03/16 01:54:43;;;;;;;8.90;3.97;;;8.70;99.90;;;;;;4980759;28;20214;-83
2022/03/16 01:57:09;;;;;;;13.10;4.47;;;8.70;99.90;;;;;;4979503;28;20232;-83
2022/03/16 01:59:36;;;;;;;9.67;3.63;;;8.70;99.90;;;;;;4980922;28;20200;-83
2022/03/16 02:02:03;;;;;;;12.23;4.13;;;8.70;99.90;;;;;;4979650;28;20187;-83
2022/03/16 02:04:29;;;;;;;5.93;4.20;;;8.60;99.90;;;;;;4980493;28;20622;-83
2022/03/16 02:06:54;;;;;;;11.53;4.43;;;8.60;99.90;;;;;;4979675;28;20192;-83
2022/03/16 02:09:21;;;;;;;10.27;4.77;;;8.60;99.90;;;;;;4979464;28;20186;-83
2022/03/16 02:11:47;;;;;;;6.67;4.20;;;8.50;99.90;;;;;;4980713;28;20638;-83
2022/03/16 02:14:13;;;;;;;8.23;4.30;;;8.40;99.90;;;;;;4979521;28;20184;-83
2022/03/16 02:16:39;;;;;;;7.27;4.43;;;8.40;99.90;;;;;;4981262;28;20200;-84
2022/03/16 02:19:05;;;;;;;8.20;4.43;;;8.30;99.90;;;;;;4980871;28;20562;-83
2022/03/16 02:21:35;;;;;;;9.20;4.23;;;8.30;99.90;;;;;;4979587;28;20267;-83
2022/03/16 02:24:02;;;;;;;13.73;5.33;;;8.30;99.90;;;;;;4980840;28;20224;-83
2022/03/16 02:26:27;;;;;;;10.27;5.93;;;8.20;99.90;;;;;;4979587;28;20297;-83
2022/03/16 02:28:54;;;;;;;6.93;4.23;;;8.20;99.90;;;;;;4979705;28;20232;-84
2022/03/16 02:31:20;;;;;;;10.13;4.60;;;8.20;99.90;;;;;;4980604;28;20177;-82
2022/03/16 02:33:46;;;;;;;7.10;4.37;;;8.10;99.90;;;;;;4981166;28;20241;-82
2022/03/16 02:36:11;;;;;;;10.60;4.87;;;8.10;99.90;;;;;;4991461;28;20199;-83
2022/03/16 02:38:38;;;;;;;6.47;4.50;;;8.10;99.90;;;;;;4979813;28;20180;-83
2022/03/16 02:41:03;;;;;;;15.30;4.73;;;8.10;99.90;;;;;;4980019;28;20189;-83
2022/03/16 02:43:29;;;;;;;10.17;4.60;;;8.10;99.90;;;;;;4978245;28;20211;-83
2022/03/16 02:45:55;;;;;;;10.80;4.87;;;8.00;99.90;;;;;;4978341;28;20208;-83
2022/03/16 02:48:21;;;;;;;13.63;5.00;;;8.00;99.90;;;;;;4978354;28;20212;-83
2022/03/16 02:50:48;;;;;;;8.33;4.23;;;8.00;99.90;;;;;;4978275;28;20193;-82
2022/03/16 02:53:15;;;;;;;8.07;4.67;;;8.00;99.90;;;;;;4978025;28;20278;-83
2022/03/16 02:55:44;;;;;;;11.20;4.53;;;8.00;99.90;;;;;;4977655;28;20577;-83
2022/03/16 02:58:14;;;;;;;7.90;4.63;;;8.00;99.90;;;;;;4979194;28;20202;-83
2022/03/16 03:00:40;;;;;;;8.40;4.97;;;7.90;99.90;;;;;;4977511;28;20276;-83
2022/03/16 03:03:05;;;;;;;12.53;5.50;;;7.90;99.90;;;;;;4977300;28;20671;-82
2022/03/16 03:05:31;;;;;;;9.80;5.13;;;7.90;99.90;;;;;;4977240;28;20208;-83
2022/03/16 03:07:57;;;;;;;6.20;5.37;;;7.90;99.90;;;;;;4976976;28;20213;-83
2022/03/16 03:10:22;;;;;;;12.77;5.77;;;7.90;99.90;;;;;;4976845;28;20270;-82
2022/03/16 03:12:48;;;;;;;8.43;4.93;;;7.80;99.90;;;;;;4977695;28;20184;-83
2022/03/16 03:15:15;;;;;;;9.73;5.03;;;7.80;99.90;;;;;;4977480;28;20195;-82
2022/03/16 03:17:42;;;;;;;10.07;5.30;;;7.80;99.90;;;;;;4976824;28;20175;-83
2022/03/16 03:20:09;;;;;;;9.10;5.37;;;7.70;99.90;;;;;;4976713;28;20189;-83
2022/03/16 03:22:34;;;;;;;9.90;5.23;;;7.70;99.90;;;;;;4976580;28;20206;-83
2022/03/16 03:25:00;;;;;;;11.40;5.33;;;7.70;99.90;;;;;;4978690;28;20574;-83
2022/03/16 03:27:26;;;;;;;10.10;5.30;;;7.60;99.90;;;;;;4979505;28;20616;-83
2022/03/16 03:29:52;;;;;;;6.90;5.60;;;7.70;99.90;;;;;;4979215;28;20180;-83
2022/03/16 03:32:18;;;;;;;12.83;5.97;;;7.60;99.90;;;;;;4979108;28;20183;-83
2022/03/16 03:34:47;;;;;;;7.07;5.23;;;7.70;99.90;;;;;;4978044;28;20256;-83
2022/03/16 03:37:17;;;;;;;10.30;5.63;;;7.60;99.90;;;;;;4978163;28;20183;-83
2022/03/16 03:39:42;;;;;;;9.30;5.83;;;7.60;99.90;;;;;;4981032;28;20225;-82
2022/03/16 03:42:09;;;;;;;9.83;5.77;;;7.60;99.90;;;;;;4980741;28;20184;-83
2022/03/16 03:44:38;;;;;;;7.80;5.10;;;7.60;99.90;;;;;;4978818;28;20176;-83
2022/03/16 03:47:05;;;;;;;11.47;5.60;;;7.60;99.90;;;;;;4977838;28;20184;-83
2022/03/16 03:49:35;;;;;;;8.73;5.00;;;7.60;99.90;;;;;;4977735;28;20698;-83
2022/03/16 03:52:02;;;;;;;11.30;5.37;;;7.60;99.90;;;;;;4977309;28;20190;-83
2022/03/16 03:54:28;;;;;;;8.20;5.30;;;7.60;99.90;;;;;;4977474;28;20564;-83
2022/03/16 03:56:53;;;;;;;8.83;6.00;;;7.60;99.90;;;;;;4979068;28;20628;-83
2022/03/16 03:59:20;;;;;;;8.00;5.37;;;7.60;99.90;;;;;;4978554;28;20217;-83
2022/03/16 04:01:46;;;;;;;14.60;6.40;;;7.60;99.90;;;;;;4978689;28;20269;-83
2022/03/16 04:04:11;;;;;;;10.90;6.40;;;7.60;99.90;;;;;;4979000;28;20268;-83
2022/03/16 04:06:37;;;;;;;10.70;5.57;;;7.60;99.90;;;;;;4977387;28;20209;-83
2022/03/16 04:09:03;;;;;;;8.13;5.47;;;7.60;99.90;;;;;;4978518;28;20327;-83
2022/03/16 04:11:28;;;;;;;11.63;6.60;;;7.60;99.90;;;;;;4977568;28;20181;-83
2022/03/16 04:13:54;;;;;;;8.70;5.93;;;7.50;99.90;;;;;;4978391;28;20255;-82
2022/03/16 04:16:20;;;;;;;11.87;5.83;;;7.50;99.90;;;;;;4977101;28;20203;-83
2022/03/16 04:18:46;;;;;;;8.53;5.53;;;7.50;99.90;;;;;;4977049;28;20187;-83
2022/03/16 04:21:11;;;;;;;8.17;6.47;;;7.50;99.90;;;;;;4978508;28;20182;-83
2022/03/16 04:23:37;;;;;;;14.83;7.33;;;7.50;99.90;;;;;;4976867;28;20245;-83
2022/03/16 04:26:02;;;;;;;10.13;6.90;;;7.60;99.90;;;;;;4977187;28;20703;-83
2022/03/16 04:28:28;;;;;;;11.73;6.53;;;7.60;99.90;;;;;;4978758;28;20335;-83
2022/03/16 04:30:54;;;;;;;10.70;5.90;;;7.60;99.90;;;;;;4978105;28;20200;-83
2022/03/16 04:33:19;;;;;;;8.77;6.23;;;7.60;99.90;;;;;;4978695;28;20588;-82
2022/03/16 04:35:45;;;;;;;10.30;6.03;;;7.60;99.90;;;;;;4978161;28;20286;-82
2022/03/16 04:38:11;;;;;;;15.73;6.53;;;7.60;99.90;;;;;;4982684;28;20183;-82
2022/03/16 04:40:36;;;;;;;8.37;5.63;;;7.60;99.90;;;;;;4984338;28;20221;-83
2022/03/16 04:43:03;;;;;;;10.77;6.60;;;7.60;99.90;;;;;;4984831;28;20230;-83
2022/03/16 04:45:28;;;;;;;10.37;5.63;;;7.60;99.90;;;;;;4983543;28;20568;-83
2022/03/16 04:47:54;;;;;;;7.33;6.00;;;7.60;99.90;;;;;;4985074;28;20206;-83
2022/03/16 04:50:20;;;;;;;14.23;6.63;;;7.50;99.90;;;;;;4984855;28;20209;-82
2022/03/16 04:52:47;;;;;;;8.93;5.70;;;7.60;99.90;;;;;;4984172;28;20202;-82
2022/03/16 04:55:14;;;;;;;13.10;5.83;;;7.50;99.90;;;;;;4984363;28;20218;-83
2022/03/16 04:57:40;;;;;;;11.83;6.67;;;7.50;99.90;;;;;;4989007;28;20257;-83
2022/03/16 05:00:07;;;;;;;12.53;6.80;;;7.50;99.90;;;;;;4983348;28;20263;-83
2022/03/16 05:02:33;;;;;;;11.70;6.27;;;7.50;99.90;;;;;;4982988;28;20191;-82
2022/03/16 05:04:58;;;;;;;11.70;6.37;;;7.50;99.90;;;;;;4984692;28;20210;-82
2022/03/16 05:07:24;;;;;;;10.27;6.20;;;7.50;99.90;;;;;;4984826;28;20233;-82
2022/03/16 05:09:50;;;;;;;11.50;6.90;;;7.50;99.90;;;;;;4984308;28;20260;-82
2022/03/16 05:12:15;;;;;;;11.60;7.70;;;7.50;99.90;;;;;;4985072;28;20182;-83
2022/03/16 05:14:41;;;;;;;14.30;8.60;;;7.50;99.90;;;;;;4983612;28;20210;-83
2022/03/16 05:17:07;;;;;;;18.83;8.87;;;7.50;99.90;;;;;;4983626;28;20182;-83
2022/03/16 05:19:32;;;;;;;14.23;10.07;;;7.50;99.90;;;;;;4984872;28;20195;-83
2022/03/16 05:21:58;;;;;;;18.17;9.03;;;7.50;99.90;;;;;;4984858;28;20236;-83
2022/03/16 05:24:24;;;;;;;23.83;9.93;;;7.40;99.90;;;;;;4983680;28;20182;-82
2022/03/16 05:26:50;;;;;;;15.20;9.77;;;7.40;99.90;;;;;;4982611;28;20178;-83
2022/03/16 05:29:16;;;;;;;19.63;8.73;;;7.40;99.90;;;;;;4984200;28;20261;-82
2022/03/16 05:31:43;;;;;;;13.10;8.03;;;7.40;99.90;;;;;;4983986;28;20181;-83
2022/03/16 05:34:08;;;;;;;17.43;7.37;;;7.40;99.90;;;;;;4997445;28;20208;-82
2022/03/16 05:36:34;;;;;;;12.70;7.40;;;7.40;99.90;;;;;;5000354;28;20178;-82
2022/03/16 05:39:00;;;;;;;14.60;8.40;;;7.40;99.90;;;;;;4990805;28;20184;-82
2022/03/16 05:41:26;;;;;;;13.83;8.13;;;7.40;99.90;;;;;;4982538;28;20211;-82
2022/03/16 05:43:51;;;;;;;13.00;7.50;;;7.40;99.90;;;;;;4983544;28;20181;-82
2022/03/16 05:46:17;;;;;;;8.53;7.03;;;7.40;99.90;;;;;;4983379;28;20202;-82
2022/03/16 05:48:43;;;;;;;13.50;8.30;;;7.40;99.90;;;;;;4982209;28;20201;-82
2022/03/16 05:51:09;;;;;;;11.73;7.27;;;7.40;99.90;;;;;;4978866;28;20664;-82
2022/03/16 05:53:35;;;;;;;11.17;7.27;;;7.40;99.90;;;;;;4980009;28;20217;-82
2022/03/16 05:56:01;;;;;;;9.47;7.00;;;7.40;99.90;;;;;;4979450;28;20219;-82
2022/03/16 05:58:27;;;;;;;13.00;6.67;;;7.40;99.90;;;;;;4980279;28;20249;-83
2022/03/16 06:00:52;;;;;;;9.97;7.80;;;7.40;99.90;;;;;;4978887;28;20546;-82
2022/03/16 06:03:18;;;;;;;13.30;9.00;;;7.30;99.90;;;;;;4978537;28;20186;-83
2022/03/16 06:05:44;;;;;;;12.57;8.60;;;7.30;99.90;;;;;;4978093;28;20207;-82
2022/03/16 06:08:09;;;;;;;13.53;8.23;;;7.20;99.90;;;;;;4978404;28;20217;-82
2022/03/16 06:10:35;;;;;;;16.83;8.53;;;7.20;99.90;;;;;;4978884;28;20179;-82
2022/03/16 06:13:03;;;;;;;18.73;9.03;;;7.20;99.90;;;;;;4980086;28;20189;-82
2022/03/16 06:15:31;;;;;;;15.03;9.70;;;7.20;99.90;;;;;;4976829;28;20202;-83
2022/03/16 06:17:58;;;;;;;17.17;9.30;;;7.10;99.90;;;;;;4978005;28;20707;-83
2022/03/16 06:20:28;;;;;;;16.37;9.07;;;7.10;99.90;;;;;;4978003;28;20187;-82
2022/03/16 06:22:54;;;;;;;14.60;9.73;;;7.10;99.90;;;;;;4978620;28;20193;-82
2022/03/16 06:25:20;;;;;;;17.57;8.57;;;7.10;99.90;;;;;;4977718;28;20210;-82
2022/03/16 06:27:45;;;;;;;13.90;9.53;;;7.10;99.90;;;;;;4979541;28;20664;-82
2022/03/16 06:30:12;;;;;;;15.30;9.63;;;7.10;99.90;;;;;;4978942;28;20183;-82
2022/03/16 06:32:38;;;;;;;12.33;8.90;;;7.10;99.90;;;;;;4978690;28;20619;-82
2022/03/16 06:35:05;;;;;;;14.40;9.73;;;7.10;99.90;;;;;;4978474;28;20235;-82
2022/03/16 06:37:33;;;;;;;13.67;10.07;;;7.10;99.90;;;;;;4977503;28;20181;-82
2022/03/16 06:39:59;;;;;;;16.20;9.43;;;7.10;99.90;;;;;;4978481;28;20186;-82
2022/03/16 06:42:24;;;;;;;12.97;9.20;;;7.10;99.90;;;;;;4978233;28;20665;-82
2022/03/16 06:44:50;;;;;;;16.23;10.33;;;7.10;99.90;;;;;;4977345;28;20207;-82
2022/03/16 06:47:16;;;;;;;16.37;10.43;;;7.20;99.90;;;;;;4977867;28;20187;-83
2022/03/16 06:49:42;;;;;;;13.17;9.13;;;7.30;99.90;;;;;;4980336;28;20186;-83
2022/03/16 06:52:07;;;;;;;13.60;9.60;;;7.20;99.90;;;;;;4978835;28;20338;-83
2022/03/16 06:54:33;;;;;;;14.27;9.13;;;7.20;99.90;;;;;;4979068;28;20209;-83
2022/03/16 06:56:59;;;;;;;15.10;9.77;;;7.30;99.90;;;;;;4980578;28;20218;-83
2022/03/16 06:59:24;;;;;;;16.23;9.63;;;7.30;99.90;;;;;;4978241;28;20307;-83
2022/03/16 07:01:50;;;;;;;15.13;9.27;;;7.30;99.90;;;;;;4979634;28;20181;-83
2022/03/16 07:04:16;;;;;;;14.83;9.40;;;7.20;99.90;;;;;;4978494;28;20235;-83
2022/03/16 07:06:41;;;;;;;12.70;9.77;;;7.20;99.90;;;;;;4978488;28;20299;-83
2022/03/16 07:09:07;;;;;;;18.93;11.57;;;7.20;99.90;;;;;;4978729;28;20214;-83
2022/03/16 07:11:33;;;;;;;16.90;11.83;;;7.10;99.90;;;;;;4979273;28;20249;-83
2022/03/16 07:16:42;;;;;;;22.30;14.17;;;7.10;99.90;;;;;;4980077;28;20619;-83
2022/03/16 07:19:08;;;;;;;22.70;15.00;;;7.10;99.90;;;;;;4978536;28;20205;-82
2022/03/16 07:21:34;;;;;;;25.20;16.63;;;7.10;99.90;;;;;;4980938;28;20181;-82
2022/03/16 07:24:00;;;;;;;23.60;15.80;;;7.10;99.90;;;;;;4979884;28;20565;-83
2022/03/16 07:26:27;;;;;;;31.20;18.07;;;7.10;99.90;;;;;;4978687;28;20283;-82
2022/03/16 07:28:53;;;;;;;25.57;16.67;;;7.10;99.90;;;;;;4982609;28;20572;-81
2022/03/16 07:31:19;;;;;;;27.87;16.60;;;7.10;99.90;;;;;;4979134;28;20183;-82
2022/03/16 07:33:45;;;;;;;26.70;17.07;;;7.20;99.90;;;;;;4978276;28;20182;-82
2022/03/16 07:36:10;;;;;;;32.77;17.47;;;7.20;99.90;;;;;;4976949;28;20242;-81
2022/03/16 07:38:36;;;;;;;36.87;17.33;;;7.20;99.90;;;;;;4976739;28;20240;-82
2022/03/16 07:41:02;;;;;;;26.47;17.63;;;7.30;99.90;;;;;;4977901;28;20184;-82
2022/03/16 07:43:29;;;;;;;29.70;16.80;;;7.30;99.90;;;;;;4977734;28;20178;-82
2022/03/16 07:45:55;;;;;;;32.23;18.70;;;7.40;99.90;;;;;;4976626;28;20211;-82
2022/03/16 07:48:21;;;;;;;27.80;15.87;;;7.40;99.90;;;;;;4976590;28;20203;-82
2022/03/16 07:50:47;;;;;;;28.10;18.57;;;7.50;99.90;;;;;;4977208;28;20209;-82
2022/03/16 07:53:13;;;;;;;26.47;17.90;;;7.60;99.90;;;;;;4976167;28;20661;-82
2022/03/16 07:55:39;;;;;;;28.43;16.10;;;7.60;99.90;;;;;;4976226;28;20218;-82
2022/03/16 07:58:05;;;;;;;27.40;16.67;;;7.60;99.90;;;;;;4978180;28;20580;-82
2022/03/16 08:00:31;;;;;;;25.27;17.30;;;7.60;99.90;;;;;;4977920;28;20189;-82
2022/03/16 08:03:01;;;;;;;24.23;16.20;;;7.60;99.90;;;;;;4979871;28;20549;-82
2022/03/16 08:05:27;;;;;;;25.23;16.43;;;7.70;99.90;;;;;;4979750;28;20199;-82
2022/03/16 08:07:53;;;;;;;23.90;16.03;;;7.70;99.90;;;;;;4978100;28;20242;-82
2022/03/16 08:10:19;;;;;;;24.50;16.50;;;7.90;99.90;;;;;;4978803;28;20194;-82
2022/03/16 08:12:45;;;;;;;31.77;21.13;;;7.90;99.90;;;;;;4980002;28;20175;-82
2022/03/16 08:15:11;;;;;;;26.87;17.37;;;7.90;99.90;;;;;;4979014;28;20210;-82
2022/03/16 08:17:36;;;;;;;27.50;17.17;;;7.80;99.90;;;;;;4980216;28;20194;-83
2022/03/16 08:20:03;;;;;;;25.83;18.10;;;7.80;99.90;;;;;;4976616;28;20653;-82
2022/03/16 08:22:30;;;;;;;27.80;17.80;;;7.70;99.90;;;;;;4975547;28;20186;-82
2022/03/16 08:24:58;;;;;;;28.83;18.37;;;7.70;99.90;;;;;;4977455;28;20580;-83
2022/03/16 08:27:25;;;;;;;28.33;18.93;;;7.70;99.90;;;;;;4977614;28;20179;-82
2022/03/16 08:29:52;;;;;;;40.60;18.53;;;7.70;99.90;;;;;;4976776;28;20553;-82
2022/03/16 08:32:18;;;;;;;28.57;17.90;;;7.60;99.90;;;;;;4978276;28;20182;-83
2022/03/16 08:34:44;;;;;;;29.73;18.67;;;7.60;99.90;;;;;;4978040;28;20195;-83
2022/03/16 08:37:10;;;;;;;36.17;21.27;;;7.60;99.90;;;;;;4977386;28;20182;-83
2022/03/16 08:39:37;;;;;;;30.73;19.90;;;7.70;99.90;;;;;;4978022;28;20189;-83
2022/03/16 08:42:03;;;;;;;47.30;18.53;;;7.60;99.90;;;;;;4977097;28;20284;-83
2022/03/16 08:44:28;;;;;;;40.40;18.50;;;7.40;99.90;;;;;;4979013;28;20225;-82
2022/03/16 08:46:54;;;;;;;25.43;17.83;;;7.40;99.90;;;;;;4977826;28;20723;-83
2022/03/16 08:49:21;;;;;;;35.37;17.77;;;7.30;99.90;;;;;;4977011;28;20211;-82
2022/03/16 08:51:47;;;;;;;30.83;17.80;;;7.10;99.90;;;;;;4976426;28;20186;-82
2022/03/16 08:54:13;;;;;;;32.90;16.53;;;7.10;99.90;;;;;;4975319;28;20183;-82
2022/03/16 08:56:39;;;;;;;38.27;16.53;;;7.00;99.90;;;;;;4976854;28;20206;-82
2022/03/16 08:59:04;;;;;;;37.17;17.30;;;6.90;99.90;;;;;;4975670;28;20190;-83
2022/03/16 09:01:30;;;;;;;89.00;20.77;;;6.80;99.90;;;;;;4976214;28;20187;-82
2022/03/16 09:03:55;;;;;;;32.37;18.70;;;6.70;99.90;;;;;;4976271;28;20182;-82
2022/03/16 09:06:21;;;;;;;27.27;17.50;;;6.70;99.90;;;;;;4974978;28;20219;-82
2022/03/16 09:08:47;;;;;;;30.87;18.63;;;6.60;99.90;;;;;;4975577;28;20571;-82
2022/03/16 09:11:13;;;;;;;25.87;17.73;;;6.60;99.90;;;;;;4975661;28;20260;-82
2022/03/16 09:13:39;;;;;;;41.53;18.77;;;6.50;99.90;;;;;;4973656;28;20195;-83
2022/03/16 09:16:06;;;;;;;26.57;18.00;;;6.60;99.90;;;;;;4976070;28;20203;-83
2022/03/16 09:18:33;;;;;;;37.10;19.53;;;6.50;99.90;;;;;;4976906;28;20244;-82
2022/03/16 09:21:00;;;;;;;36.47;19.77;;;6.40;99.90;;;;;;4978941;28;20172;-83
2022/03/16 09:23:31;;;;;;;30.27;19.67;;;6.40;99.90;;;;;;4991812;28;20186;-82
2022/03/16 09:25:59;;;;;;;34.90;19.73;;;6.40;99.90;;;;;;4996206;28;20213;-82
2022/03/16 09:28:25;;;;;;;33.77;19.70;;;6.40;99.90;;;;;;4993197;28;20199;-83
2022/03/16 09:30:50;;;;;;;28.63;19.00;;;6.50;99.90;;;;;;4981967;28;20180;-82
2022/03/16 09:33:17;;;;;;;29.77;20.47;;;6.50;99.90;;;;;;4980605;28;20183;-83
2022/03/16 09:35:44;;;;;;;28.87;18.93;;;6.50;99.90;;;;;;4979349;28;20297;-82
2022/03/16 09:38:10;;;;;;;30.83;20.17;;;6.60;99.90;;;;;;4980008;28;20192;-83
2022/03/16 09:40:36;;;;;;;28.10;19.27;;;6.60;99.90;;;;;;4981624;28;20183;-83
2022/03/16 09:43:08;;;;;;;27.17;18.03;;;6.70;99.90;;;;;;4980735;28;20184;-83
2022/03/16 09:45:47;;;;;;;31.17;20.27;;;6.80;99.90;;;;;;4981226;28;20260;-83
2022/03/16 09:48:13;;;;;;;24.03;17.77;;;6.80;99.90;;;;;;4981246;28;20239;-84
2022/03/16 09:50:42;;;;;;;29.70;20.77;;;6.90;99.90;;;;;;4981856;28;20180;-83
2022/03/16 09:53:11;;;;;;;28.33;19.03;;;6.90;99.90;;;;;;4980363;28;20203;-84
2022/03/16 09:55:37;;;;;;;28.13;19.33;;;7.10;99.90;;;;;;4982128;28;20213;-84
2022/03/16 09:58:04;;;;;;;28.17;19.27;;;7.10;99.90;;;;;;4980521;28;20219;-84
2022/03/16 10:00:30;;;;;;;30.30;19.50;;;7.20;99.90;;;;;;4980520;28;20182;-84
2022/03/16 10:03:05;;;;;;;26.40;18.33;;;7.20;99.90;;;;;;4979280;28;20194;-84
2022/03/16 10:05:31;;;;;;;30.97;19.90;;;7.30;99.90;;;;;;4979583;28;20623;-84
2022/03/16 10:08:02;;;;;;;30.80;21.10;;;7.40;99.90;;;;;;4980366;28;20281;-82
2022/03/16 10:13:19;;;;;;;25.90;17.50;;;7.90;99.90;;;;;;4980985;28;20221;-83
2022/03/16 10:15:45;;;;;;;28.40;19.07;;;7.90;99.90;;;;;;4979650;28;20684;-83
2022/03/16 10:18:20;;;;;;;22.83;16.83;;;8.00;99.90;;;;;;4979254;28;20204;-84
2022/03/16 10:20:46;;;;;;;24.50;15.87;;;8.20;99.90;;;;;;4981051;28;20514;-84
2022/03/16 10:23:21;;;;;;;22.43;16.40;;;8.30;99.90;;;;;;4979517;28;20241;-84
2022/03/16 10:25:53;;;;;;;23.10;17.23;;;8.40;99.90;;;;;;4981350;28;20256;-83
2022/03/16 10:28:21;;;;;;;24.43;16.53;;;8.50;99.90;;;;;;4979881;28;20287;-83
2022/03/16 10:31:02;;;;;;;20.00;15.47;;;8.80;99.90;;;;;;4979247;28;20180;-84
2022/03/16 10:33:47;;;;;;;23.60;16.47;;;8.90;99.90;;;;;;4980005;28;20164;-84
2022/03/16 10:36:15;;;;;;;20.20;15.20;;;9.10;99.90;;;;;;4979038;28;20213;-84
2022/03/16 10:38:58;;;;;;;19.77;15.50;;;9.10;99.90;;;;;;4980729;28;20177;-84
2022/03/16 10:47:14;;;;;;;19.10;14.07;;;9.60;99.90;;;;;;4981693;28;20175;-84
2022/03/16 10:49:40;;;;;;;21.07;14.63;;;9.40;99.90;;;;;;4980933;28;20176;-84
2022/03/16 10:52:17;;;;;;;18.60;13.87;;;9.20;99.90;;;;;;4980175;28;20274;-84
2022/03/16 10:54:44;;;;;;;18.17;14.23;;;9.10;99.90;;;;;;4979504;28;20271;-83
2022/03/16 10:57:12;;;;;;;17.97;13.33;;;9.20;99.90;;;;;;4979434;28;20174;-83
2022/03/16 10:59:39;;;;;;;19.27;15.10;;;9.20;99.90;;;;;;4979634;28;20187;-83
2022/03/16 11:02:12;;;;;;;21.57;15.60;;;9.40;99.90;;;;;;4980255;28;20177;-83
2022/03/16 11:04:38;;;;;;;19.43;14.60;;;9.70;99.90;;;;;;4980368;28;20176;-84
2022/03/16 11:07:05;;;;;;;20.37;15.67;;;9.70;99.90;;;;;;4979908;28;20195;-83
2022/03/16 11:09:32;;;;;;;22.40;15.57;;;9.80;99.90;;;;;;4980112;28;20565;-83
2022/03/16 11:14:44;;;;;;;19.00;13.97;;;9.90;99.90;;;;;;4981314;28;20223;-82
2022/03/16 11:17:10;;;;;;;18.77;14.13;;;9.60;99.90;;;;;;4983183;28;20195;-83
2022/03/16 11:19:39;;;;;;;19.87;13.77;;;9.80;99.90;;;;;;4981714;28;20184;-83
2022/03/16 11:22:34;;;;;;;20.17;15.13;;;10.10;99.90;;;;;;4990346;28;20180;-81
2022/03/16 11:25:11;;;;;;;19.27;13.83;;;10.10;99.90;;;;;;4994202;28;20200;-82
2022/03/16 11:27:46;;;;;;;19.83;14.17;;;10.40;99.90;;;;;;4990861;28;20204;-81
2022/03/16 11:30:29;;;;;;;18.70;13.60;;;10.60;99.90;;;;;;4980297;28;20171;-82
2022/03/16 11:33:03;;;;;;;18.03;13.57;;;10.70;99.90;;;;;;4978867;28;20221;-82
2022/03/16 11:35:37;;;;;;;16.83;14.10;;;10.70;99.90;;;;;;4977811;28;20238;-83
2022/03/16 11:38:10;;;;;;;16.43;12.77;;;10.80;99.90;;;;;;4979300;28;20155;-84
2022/03/16 11:40:38;;;;;;;17.23;13.27;;;11.20;99.90;;;;;;4978526;28;20521;-82
2022/03/16 11:43:04;;;;;;;14.60;12.67;;;11.20;99.90;;;;;;4978727;28;20165;-83
2022/03/16 11:45:38;;;;;;;15.80;12.57;;;11.10;99.90;;;;;;4978983;28;20632;-82
2022/03/16 11:48:31;;;;;;;15.37;12.43;;;11.10;99.90;;;;;;4981411;28;20242;-82
2022/03/16 11:51:08;;;;;;;16.77;13.20;;;11.30;99.90;;;;;;4980728;28;20172;-82
2022/03/16 11:53:46;;;;;;;22.20;13.60;;;11.30;99.90;;;;;;4979218;28;20177;-83
2022/03/16 11:56:36;;;;;;;16.07;13.43;;;11.20;99.90;;;;;;4980330;28;20275;-83
2022/03/16 11:59:29;;;;;;;14.80;12.93;;;11.10;99.90;;;;;;4980142;28;20188;-83
2022/03/16 12:02:06;;;;;;;16.80;13.77;;;10.90;99.90;;;;;;4978631;28;20164;-82
2022/03/16 12:04:34;;;;;;;16.67;12.67;;;10.70;99.90;;;;;;4979961;28;20166;-82
2022/03/16 12:07:14;;;;;;;18.83;13.87;;;10.60;99.90;;;;;;4977430;28;20181;-81
2022/03/16 12:09:39;;;;;;;19.33;14.00;;;10.60;99.90;;;;;;4977892;28;20207;-80
2022/03/16 12:15:08;;;;;;;16.10;12.73;;;10.90;99.90;;;;;;4982433;28;20210;-82
2022/03/16 12:17:34;;;;;;;20.03;14.57;;;11.20;99.90;;;;;;4988990;28;20191;-83
2022/03/16 12:20:10;;;;;;;19.73;14.20;;;11.10;99.90;;;;;;4989427;28;20180;-81
2022/03/16 12:22:47;;;;;;;19.03;14.00;;;11.00;99.90;;;;;;4980491;28;20182;-82
2022/03/16 12:25:26;;;;;;;18.07;13.93;;;10.60;99.90;;;;;;4981712;28;20236;-84
2022/03/16 12:31:18;;;;;;;20.67;14.90;;;10.40;99.90;;;;;;4983299;28;20273;-83
2022/03/16 12:33:46;;;;;;;20.93;15.00;;;10.20;99.90;;;;;;4981849;28;20187;-84
2022/03/16 12:36:19;;;;;;;22.23;14.07;;;10.00;99.90;;;;;;4980494;28;20199;-83
2022/03/16 12:38:51;;;;;;;17.73;14.40;;;10.20;99.90;;;;;;4979986;28;20192;-82
2022/03/16 12:44:10;;;;;;;20.77;14.70;;;10.50;99.90;;;;;;4980340;28;20633;-81
2022/03/16 12:47:09;;;;;;;16.10;12.67;;;10.80;99.90;;;;;;4980345;28;20231;-82
2022/03/16 12:49:42;;;;;;;17.90;14.17;;;11.00;99.90;;;;;;4981697;28;20590;-81
2022/03/16 12:52:08;;;;;;;18.20;14.30;;;10.80;99.90;;;;;;4980632;28;20259;-81
2022/03/16 12:54:36;;;;;;;17.33;13.07;;;10.70;99.90;;;;;;4981096;28;20188;-81
2022/03/16 12:57:11;;;;;;;15.70;12.43;;;10.80;99.90;;;;;;4979896;28;20222;-81
2022/03/16 12:59:48;;;;;;;20.40;13.30;;;10.60;99.90;;;;;;4982971;28;20172;-82
2022/03/16 13:02:22;;;;;;;17.80;13.70;;;10.60;99.90;;;;;;4984931;28;20168;-82
2022/03/16 13:04:56;;;;;;;16.07;13.00;;;10.80;99.90;;;;;;4983892;28;20693;-82
2022/03/16 13:07:23;;;;;;;17.50;13.80;;;10.90;99.90;;;;;;4985768;28;20197;-82
2022/03/16 13:09:53;;;;;;;17.60;13.93;;;10.90;99.90;;;;;;4984319;28;20184;-82